Time;durP1;ratioP1;P1;durP2;ratioP2;P2;SDS_P1;SDS_P2;PMS_P1;PMS_P2;Temp;Humidity;BMP_temperature;BMP_pressure;BME280_temperature;BME280_humidity;BME280_pressure;Samples;Min_cycle;Max_cycle;Signal;HPM_P1;HPM_P2
2022/03/29 00:00:13;;;;;;;0.30;0.10;;;;;;;22.28;48.17;100713.34;5032880;28;20472;-69
2022/03/29 00:02:41;;;;;;;2.22;0.22;;;;;;;22.56;50.25;100711.41;5033144;28;20493;-69
2022/03/29 00:05:07;;;;;;;1.08;0.10;;;;;;;22.76;49.98;100708.78;5031867;28;20159;-69
2022/03/29 00:07:34;;;;;;;0.90;0.25;;;;;;;22.90;51.73;100705.09;5032690;28;20478;-69
2022/03/29 00:10:01;;;;;;;1.10;0.20;;;;;;;22.95;50.74;100721.75;5032876;28;20385;-69
2022/03/29 00:12:27;;;;;;;1.17;0.13;;;;;;;23.04;51.98;100719.69;5032819;28;20049;-69
2022/03/29 00:14:52;;;;;;;0.55;0.20;;;;;;;23.10;52.60;100708.75;5032983;28;20489;-69
2022/03/29 00:17:18;;;;;;;0.73;0.35;;;;;;;23.18;54.15;100709.59;5031473;28;20036;-69
2022/03/29 00:19:43;;;;;;;0.43;0.10;;;;;;;23.24;53.34;100708.78;5033123;28;20056;-69
2022/03/29 00:22:08;;;;;;;0.57;0.13;;;;;;;23.26;55.44;100702.03;5032633;28;20029;-70
2022/03/29 00:24:33;;;;;;;0.73;0.10;;;;;;;23.30;55.25;100707.94;5032626;28;20025;-69
2022/03/29 00:26:59;;;;;;;0.77;0.20;;;;;;;23.35;54.98;100702.69;5032820;28;20036;-69
2022/03/29 00:29:24;;;;;;;1.70;0.22;;;;;;;23.38;54.74;100705.88;5032518;28;20025;-69
2022/03/29 00:31:49;;;;;;;0.93;0.20;;;;;;;23.40;55.02;100712.00;5032737;28;20116;-69
2022/03/29 00:34:15;;;;;;;4.68;0.80;;;;;;;23.47;55.35;100708.41;5032362;28;20052;-69
2022/03/29 00:36:40;;;;;;;1.30;0.47;;;;;;;23.52;54.83;100704.00;5036043;28;20079;-69
2022/03/29 00:39:05;;;;;;;1.30;0.32;;;;;;;23.56;55.57;100704.41;5052415;28;20372;-69
2022/03/29 00:41:31;;;;;;;0.77;0.13;;;;;;;23.59;55.41;100707.63;5052278;28;20033;-69
2022/03/29 00:43:57;;;;;;;0.35;0.20;;;;;;;23.60;53.59;100709.31;5052352;28;20021;-70
2022/03/29 00:46:22;;;;;;;1.23;0.20;;;;;;;23.62;54.21;100720.91;5052108;28;20021;-69
2022/03/29 00:48:47;;;;;;;0.98;0.20;;;;;;;23.65;54.29;100723.22;5052404;28;20025;-69
2022/03/29 00:51:13;;;;;;;1.10;0.25;;;;;;;23.66;53.71;100722.19;5052309;28;20057;-69
2022/03/29 00:53:38;;;;;;;1.95;0.63;;;;;;;23.66;53.52;100722.19;5052092;28;20526;-69
2022/03/29 00:56:04;;;;;;;1.33;0.30;;;;;;;23.69;54.06;100729.19;5052159;28;20028;-69
2022/03/29 00:58:31;;;;;;;0.40;0.32;;;;;;;23.72;53.54;100728.75;5051908;28;20091;-69
2022/03/29 01:01:01;;;;;;;2.90;0.73;;;;;;;23.75;53.15;100722.00;5052281;28;20083;-69
2022/03/29 01:03:27;;;;;;;0.40;0.10;;;;;;;23.77;53.18;100719.88;5052049;28;20071;-69
2022/03/29 01:05:52;;;;;;;1.33;0.30;;;;;;;23.76;53.65;100716.28;5047299;28;20025;-70
2022/03/29 01:08:18;;;;;;;1.48;0.20;;;;;;;23.78;53.28;100718.81;5031906;28;20056;-69
2022/03/29 01:10:45;;;;;;;1.20;0.20;;;;;;;23.78;53.06;100718.81;5032354;28;20021;-69
2022/03/29 01:13:11;;;;;;;1.75;0.30;;;;;;;23.80;52.53;100720.28;5032129;28;20507;-69
2022/03/29 01:15:37;;;;;;;0.38;0.10;;;;;;;23.79;51.98;100723.25;5032366;28;20396;-69
2022/03/29 01:18:05;;;;;;;1.83;0.47;;;;;;;23.83;52.62;100719.03;5030699;28;20022;-69
2022/03/29 01:20:32;;;;;;;1.85;0.47;;;;;;;23.83;52.50;100702.56;5032007;28;20489;-69
2022/03/29 01:23:01;;;;;;;0.32;0.20;;;;;;;23.85;50.81;100719.66;5030920;28;20512;-70
2022/03/29 01:25:34;;;;;;;2.67;0.55;;;;;;;23.85;52.19;100708.69;5031936;28;20068;-69
2022/03/29 01:28:01;;;;;;;1.08;0.13;;;;;;;23.86;51.83;100708.50;5032005;28;20021;-69
2022/03/29 01:30:27;;;;;;;1.15;0.20;;;;;;;23.87;51.14;100701.09;5031873;28;20036;-69
2022/03/29 01:32:52;;;;;;;0.63;0.20;;;;;;;23.88;51.74;100689.91;5032141;28;20284;-70
2022/03/29 01:35:21;;;;;;;0.80;0.20;;;;;;;23.90;51.40;100689.69;5031844;28;20030;-69
2022/03/29 01:37:47;;;;;;;1.73;0.20;;;;;;;23.90;51.82;100686.94;5050137;28;20021;-69
2022/03/29 01:40:15;;;;;;;0.70;0.20;;;;;;;23.91;52.13;100694.97;5051623;28;20029;-69
2022/03/29 01:42:56;;;;;;;0.65;0.30;;;;;;;23.93;51.82;100681.03;5051927;28;20056;-69
2022/03/29 01:45:24;;;;;;;0.98;0.20;;;;;;;23.93;51.63;100686.50;5051556;28;20024;-69
2022/03/29 01:47:49;;;;;;;3.05;0.90;;;;;;;23.93;51.38;100681.03;5051746;28;20067;-69
2022/03/29 01:50:15;;;;;;;2.10;0.30;;;;;;;23.93;51.72;100687.34;5051543;28;20052;-69
2022/03/29 01:52:45;;;;;;;1.58;0.20;;;;;;;23.94;51.53;100688.19;5051790;28;20095;-69
2022/03/29 01:55:11;;;;;;;1.98;0.55;;;;;;;23.93;51.07;100687.34;5051696;28;20086;-69
2022/03/29 01:57:37;;;;;;;0.95;0.25;;;;;;;23.96;50.72;100688.84;5051408;28;20455;-70
2022/03/29 02:02:48;;;;;;;0.70;0.20;;;;;;;23.94;51.80;100688.19;5032387;28;20193;-69
2022/03/29 02:05:14;;;;;;;1.45;0.40;;;;;;;23.96;51.14;100680.59;5033123;28;20468;-69
2022/03/29 02:07:39;;;;;;;0.80;0.20;;;;;;;23.94;51.54;100682.72;5035564;28;20057;-69
2022/03/29 02:10:06;;;;;;;0.35;0.13;;;;;;;23.96;51.31;100680.59;5043205;28;20040;-69
2022/03/29 02:12:33;;;;;;;1.95;0.50;;;;;;;23.97;51.76;100676.78;5053405;28;20035;-69
2022/03/29 02:14:58;;;;;;;1.45;0.40;;;;;;;23.95;50.98;100674.25;5055244;28;20032;-70
2022/03/29 02:17:23;;;;;;;3.47;0.30;;;;;;;23.95;51.00;100679.75;5054797;28;20017;-69
2022/03/29 02:19:48;;;;;;;0.93;0.30;;;;;;;23.98;51.46;100675.72;5055106;28;20021;-69
2022/03/29 02:22:14;;;;;;;2.47;0.30;;;;;;;24.00;49.87;100679.09;5055053;28;20404;-69
2022/03/29 02:24:39;;;;;;;0.28;0.10;;;;;;;24.01;50.57;100678.03;5054851;28;20057;-69
2022/03/29 02:27:04;;;;;;;0.45;0.25;;;;;;;23.99;50.53;100675.53;5054951;28;20075;-69
2022/03/29 02:29:30;;;;;;;1.13;0.28;;;;;;;23.98;50.70;100668.34;5046305;28;20028;-69
2022/03/29 02:31:55;;;;;;;1.23;0.30;;;;;;;23.99;51.44;100671.94;5035120;28;20068;-69
2022/03/29 02:34:21;;;;;;;1.27;0.20;;;;;;;23.99;50.63;100680.16;5034631;28;20100;-69
2022/03/29 02:36:46;;;;;;;0.55;0.20;;;;;;;23.99;50.27;100680.16;5034807;28;20022;-69
2022/03/29 02:39:11;;;;;;;0.57;0.20;;;;;;;23.98;50.49;100675.72;5034644;28;20029;-69
2022/03/29 02:41:37;;;;;;;0.80;0.30;;;;;;;24.01;50.83;100683.53;5034638;28;20033;-69
2022/03/29 02:44:02;;;;;;;1.10;0.43;;;;;;;24.00;50.40;100684.59;5034525;28;20035;-69
2022/03/29 02:46:28;;;;;;;0.73;0.15;;;;;;;24.03;50.92;100680.59;5033190;28;20029;-70
2022/03/29 02:48:53;;;;;;;0.63;0.20;;;;;;;24.02;50.95;100682.50;5034558;28;20021;-71
2022/03/29 02:51:18;;;;;;;0.40;0.20;;;;;;;24.01;49.64;100669.81;5034406;28;20519;-72
2022/03/29 02:53:44;;;;;;;0.47;0.10;;;;;;;24.01;50.56;100689.88;5034486;28;20028;-71
2022/03/29 02:56:09;;;;;;;0.70;0.08;;;;;;;24.01;50.42;100686.28;5034245;28;20032;-70
2022/03/29 02:58:35;;;;;;;0.52;0.13;;;;;;;23.99;51.31;100685.66;5036429;28;20049;-70
2022/03/29 03:01:00;;;;;;;0.10;0.00;;;;;;;24.00;50.34;100681.84;5054293;28;20057;-71
2022/03/29 03:03:26;;;;;;;1.38;0.20;;;;;;;23.99;50.60;100691.16;5054121;28;20678;-71
2022/03/29 03:05:51;;;;;;;0.30;0.10;;;;;;;23.99;50.21;100691.16;5054231;28;20028;-70
2022/03/29 03:08:17;;;;;;;0.13;0.10;;;;;;;23.97;50.66;100690.53;5053880;28;20029;-71
2022/03/29 03:10:42;;;;;;;0.85;0.20;;;;;;;23.98;50.80;100681.22;5054076;28;20104;-71
2022/03/29 03:13:07;;;;;;;1.05;0.25;;;;;;;23.95;50.18;100682.50;5054000;28;20027;-70
2022/03/29 03:15:33;;;;;;;0.28;0.10;;;;;;;23.96;50.61;100686.09;5054147;28;20028;-71
2022/03/29 03:17:58;;;;;;;0.25;0.13;;;;;;;23.93;50.29;100675.53;5053844;28;20166;-71
2022/03/29 03:20:24;;;;;;;0.63;0.20;;;;;;;23.94;49.50;100689.03;5053633;28;20028;-70
2022/03/29 03:22:51;;;;;;;0.00;0.00;;;;;;;23.93;50.53;100689.25;5053957;28;20036;-71
2022/03/29 03:25:17;;;;;;;0.45;0.20;;;;;;;23.93;50.21;100697.50;5053691;28;20031;-71
2022/03/29 03:27:42;;;;;;;0.10;0.10;;;;;;;23.94;50.79;100693.69;5052539;28;20063;-71
2022/03/29 03:30:13;;;;;;;0.47;0.20;;;;;;;23.95;49.73;100689.88;5037880;28;20061;-72
2022/03/29 03:32:40;;;;;;;0.10;0.10;;;;;;;23.93;50.55;100681.03;5032456;28;20033;-71
2022/03/29 03:35:06;;;;;;;0.63;0.10;;;;;;;23.91;49.63;100681.25;5033737;28;20485;-72
2022/03/29 03:37:33;;;;;;;0.95;0.20;;;;;;;23.90;49.55;100682.28;5033339;28;20412;-71
2022/03/29 03:39:58;;;;;;;0.10;0.10;;;;;;;23.94;48.91;100690.94;5034138;28;20021;-71
2022/03/29 03:42:24;;;;;;;0.35;0.10;;;;;;;23.93;49.55;100692.00;5033374;28;20064;-72
2022/03/29 03:44:49;;;;;;;0.50;0.08;;;;;;;23.90;49.49;100697.94;5033621;28;20029;-71
2022/03/29 03:47:14;;;;;;;0.45;0.10;;;;;;;23.90;49.54;100692.44;5033254;28;20033;-71
2022/03/29 03:49:40;;;;;;;0.25;0.00;;;;;;;23.92;49.12;100693.06;5033434;28;20436;-72
2022/03/29 03:52:07;;;;;;;0.13;0.08;;;;;;;23.90;48.84;100698.78;5033500;28;20388;-71
2022/03/29 03:54:33;;;;;;;0.95;0.10;;;;;;;23.89;49.47;100690.75;5031890;28;20026;-72
2022/03/29 03:56:59;;;;;;;0.20;0.00;;;;;;;23.90;49.25;100692.44;5033162;28;20050;-72
2022/03/29 03:59:24;;;;;;;0.55;0.10;;;;;;;23.90;48.35;100698.78;5042000;28;20096;-71
2022/03/29 04:01:49;;;;;;;0.08;0.00;;;;;;;23.93;49.58;100689.25;5039816;28;20026;-72
2022/03/29 04:04:15;;;;;;;0.55;0.10;;;;;;;24.01;49.04;100691.78;5041719;28;20033;-71
2022/03/29 04:06:40;;;;;;;0.40;0.00;;;;;;;24.09;49.12;100691.56;5033699;28;20021;-72
2022/03/29 04:09:05;;;;;;;0.13;0.05;;;;;;;24.14;48.74;100690.94;5031775;28;20052;-71
2022/03/29 04:11:31;;;;;;;0.70;0.10;;;;;;;24.21;47.53;100700.03;5032871;28;20029;-71
2022/03/29 04:13:58;;;;;;;0.47;0.10;;;;;;;24.23;47.66;100693.25;5032937;28;20025;-71
2022/03/29 04:16:24;;;;;;;0.10;0.10;;;;;;;24.22;46.87;100697.06;5032735;28;20021;-73
2022/03/29 04:18:50;;;;;;;0.65;0.20;;;;;;;24.24;45.50;100692.19;5032890;28;20022;-71
2022/03/29 04:21:15;;;;;;;0.57;0.10;;;;;;;24.24;45.60;100692.19;5032747;28;20108;-72
2022/03/29 04:23:40;;;;;;;0.03;0.00;;;;;;;24.24;44.91;100694.94;5032798;28;20052;-71
2022/03/29 04:26:06;;;;;;;0.20;0.00;;;;;;;24.28;45.64;100701.69;5032715;28;20071;-70
2022/03/29 04:28:31;;;;;;;0.35;0.05;;;;;;;24.27;45.17;100694.50;5036091;28;20024;-71
2022/03/29 04:30:59;;;;;;;0.32;0.25;;;;;;;24.29;45.35;100697.91;5052716;28;20078;-71
2022/03/29 04:33:28;;;;;;;0.68;0.20;;;;;;;24.29;44.60;100686.06;5051126;28;20035;-71
2022/03/29 04:35:53;;;;;;;0.08;0.00;;;;;;;24.33;44.84;100687.31;5052557;28;20031;-72
2022/03/29 04:38:19;;;;;;;0.25;0.00;;;;;;;24.35;45.05;100689.84;5052154;28;20307;-70
2022/03/29 04:40:45;;;;;;;0.00;0.00;;;;;;;24.34;44.50;100689.00;5052486;28;20053;-71
2022/03/29 04:43:10;;;;;;;0.10;0.10;;;;;;;24.33;43.65;100681.00;5052485;28;20052;-71
2022/03/29 04:45:35;;;;;;;0.17;0.00;;;;;;;24.32;44.55;100688.38;5052324;28;20024;-70
2022/03/29 04:48:01;;;;;;;0.00;0.00;;;;;;;24.37;44.39;100693.25;5051266;28;20021;-72
2022/03/29 04:50:26;;;;;;;1.10;0.20;;;;;;;24.36;43.94;100694.31;5052184;28;20032;-71
2022/03/29 04:52:52;;;;;;;0.10;0.00;;;;;;;24.42;44.73;100696.19;5052457;28;20044;-72
2022/03/29 04:55:18;;;;;;;1.60;0.00;;;;;;;24.37;43.87;100694.09;5051129;28;20067;-71
2022/03/29 04:57:47;;;;;;;0.10;0.03;;;;;;;24.38;44.06;100700.44;5052071;28;20124;-70
2022/03/29 05:00:14;;;;;;;0.45;0.10;;;;;;;24.40;44.31;100698.31;5031663;28;20059;-71
2022/03/29 05:02:43;;;;;;;1.33;0.13;;;;;;;24.38;43.86;100692.19;5032244;28;20029;-70
2022/03/29 05:05:10;;;;;;;0.20;0.00;;;;;;;24.41;43.85;100683.53;5032323;28;20033;-72
2022/03/29 05:07:35;;;;;;;0.15;0.10;;;;;;;24.42;44.24;100685.22;5042358;28;20025;-71
2022/03/29 05:10:02;;;;;;;0.20;0.08;;;;;;;24.43;43.25;100689.66;5052092;28;20392;-71
2022/03/29 05:12:27;;;;;;;0.40;0.10;;;;;;;24.41;43.96;100694.50;5052189;28;20017;-72
2022/03/29 05:14:53;;;;;;;0.20;0.00;;;;;;;24.44;43.88;100683.09;5050937;28;20036;-71
2022/03/29 05:17:18;;;;;;;0.30;0.10;;;;;;;24.43;43.22;100671.25;5051877;28;20036;-71
2022/03/29 05:19:43;;;;;;;0.20;0.00;;;;;;;24.39;42.83;100666.41;5052101;28;20025;-70
2022/03/29 05:22:08;;;;;;;0.13;0.00;;;;;;;24.46;43.72;100675.47;5051884;28;20460;-70
2022/03/29 05:24:34;;;;;;;0.00;0.00;;;;;;;24.43;43.27;100681.41;5051873;28;20025;-71
2022/03/29 05:26:59;;;;;;;0.10;0.05;;;;;;;24.43;43.03;100681.41;5052125;28;20070;-70
2022/03/29 05:29:25;;;;;;;0.13;0.00;;;;;;;24.43;43.26;100686.91;5039602;28;20029;-71
2022/03/29 05:31:50;;;;;;;0.30;0.10;;;;;;;24.43;43.10;100686.91;5032131;28;20108;-70
2022/03/29 05:34:16;;;;;;;0.65;0.10;;;;;;;24.47;43.60;100688.16;5031730;28;20025;-70
2022/03/29 05:36:44;;;;;;;0.65;0.15;;;;;;;24.49;43.55;100691.53;5032061;28;20075;-71
2022/03/29 05:39:10;;;;;;;0.90;0.10;;;;;;;24.48;43.71;100689.84;5031918;28;20036;-70
2022/03/29 05:41:35;;;;;;;0.52;0.20;;;;;;;24.49;43.65;100691.53;5035532;28;20052;-71
2022/03/29 05:44:00;;;;;;;0.20;0.00;;;;;;;24.50;43.82;100698.69;5035698;28;20025;-72
2022/03/29 05:49:09;;;;;;;0.45;0.10;;;;;;;24.45;42.73;100702.09;5035691;28;20480;-71
2022/03/29 05:51:35;;;;;;;0.00;0.00;;;;;;;24.51;42.94;100703.97;5035544;28;20033;-71
2022/03/29 05:54:02;;;;;;;0.35;0.00;;;;;;;24.53;42.84;100701.03;5035560;28;20063;-71
2022/03/29 05:56:27;;;;;;;0.35;0.00;;;;;;;24.51;42.87;100708.63;5033966;28;20036;-72
2022/03/29 05:58:53;;;;;;;0.13;0.00;;;;;;;24.52;43.46;100702.06;5044853;28;20028;-71
2022/03/29 06:01:18;;;;;;;0.28;0.08;;;;;;;24.54;43.26;100708.22;5053916;28;20025;-71
2022/03/29 06:03:44;;;;;;;0.55;0.10;;;;;;;24.51;43.02;100706.72;5055460;28;20357;-71
2022/03/29 06:06:09;;;;;;;0.35;0.17;;;;;;;24.52;43.45;100718.56;5053832;28;20424;-71
2022/03/29 06:08:35;;;;;;;2.40;0.28;;;;;;;24.52;42.75;100724.06;5053894;28;20017;-71
2022/03/29 06:11:01;;;;;;;0.43;0.00;;;;;;;24.52;43.41;100715.81;5055321;28;20383;-71
2022/03/29 06:13:27;;;;;;;0.00;0.00;;;;;;;24.52;42.92;100724.06;5054995;28;20460;-72
2022/03/29 06:15:53;;;;;;;0.00;0.00;;;;;;;24.55;43.35;100715.41;5055249;28;20028;-71
2022/03/29 06:18:19;;;;;;;0.22;0.10;;;;;;;24.54;43.69;100727.47;5053493;28;20025;-71
2022/03/29 06:20:45;;;;;;;0.32;0.00;;;;;;;24.52;43.96;100724.94;5055103;28;20473;-71
2022/03/29 06:23:10;;;;;;;0.15;0.00;;;;;;;24.58;43.83;100728.72;5053668;28;20036;-71
2022/03/29 06:25:36;;;;;;;0.00;0.00;;;;;;;24.53;43.34;100725.78;5054825;28;20461;-72
2022/03/29 06:28:01;;;;;;;0.40;0.10;;;;;;;24.56;42.79;100722.59;5054152;28;20094;-71
2022/03/29 06:30:27;;;;;;;1.17;0.20;;;;;;;24.55;44.17;100740.16;5054637;28;20079;-71
2022/03/29 06:32:53;;;;;;;0.47;0.10;;;;;;;24.57;44.11;100747.13;5053517;28;20024;-73
2022/03/29 06:35:23;;;;;;;0.17;0.05;;;;;;;24.58;43.60;100745.22;5054601;28;20112;-71
2022/03/29 06:37:51;;;;;;;0.80;0.15;;;;;;;24.56;43.28;100748.16;5054672;28;20029;-72
2022/03/29 06:40:17;;;;;;;0.03;0.00;;;;;;;24.51;43.26;100749.84;5054324;28;20025;-71
2022/03/29 06:42:43;;;;;;;0.10;0.00;;;;;;;24.52;43.64;100751.53;5054614;28;20025;-71
2022/03/29 06:45:09;;;;;;;0.57;0.00;;;;;;;24.57;43.08;100749.84;5054533;28;20033;-71
2022/03/29 06:47:34;;;;;;;0.00;0.00;;;;;;;24.53;43.40;100761.50;5054365;28;20021;-71
2022/03/29 06:50:00;;;;;;;0.22;0.08;;;;;;;24.58;43.85;100759.78;5053129;28;20021;-72
2022/03/29 06:52:26;;;;;;;2.63;0.20;;;;;;;24.55;43.29;100759.38;5053905;28;20052;-72
2022/03/29 06:54:52;;;;;;;0.55;0.20;;;;;;;24.59;43.55;100755.13;5054477;28;20032;-71
2022/03/29 06:57:17;;;;;;;0.40;0.15;;;;;;;24.57;43.73;100765.50;5053932;28;20052;-71
2022/03/29 06:59:42;;;;;;;0.25;0.10;;;;;;;24.60;42.69;100765.06;5038158;28;20034;-71
2022/03/29 07:02:08;;;;;;;0.22;0.10;;;;;;;24.60;43.39;100754.06;5032865;28;20070;-71
2022/03/29 07:04:33;;;;;;;0.65;0.10;;;;;;;24.53;42.23;100767.00;5034107;28;20408;-71
2022/03/29 07:06:58;;;;;;;0.30;0.20;;;;;;;24.58;43.68;100772.69;5033023;28;20033;-71
2022/03/29 07:12:07;;;;;;;0.10;0.07;;;;;;;24.59;43.60;100779.88;5033364;28;20037;-72
2022/03/29 07:14:32;;;;;;;0.05;0.05;;;;;;;24.58;43.81;100767.19;5033972;28;20029;-72
2022/03/29 07:16:59;;;;;;;0.32;0.05;;;;;;;24.60;43.56;100767.81;5032804;28;20490;-72
2022/03/29 07:19:27;;;;;;;1.52;0.10;;;;;;;24.57;43.42;100760.00;5032426;28;20473;-72
2022/03/29 07:21:52;;;;;;;0.88;0.20;;;;;;;24.55;43.91;100773.13;5033968;28;20068;-72
2022/03/29 07:24:17;;;;;;;0.10;0.10;;;;;;;24.59;43.75;100777.13;5033498;28;20057;-71
2022/03/29 07:26:43;;;;;;;0.15;0.00;;;;;;;24.57;42.74;100776.50;5033857;28;20037;-73
2022/03/29 07:29:08;;;;;;;0.43;0.10;;;;;;;24.56;43.55;100775.66;5033999;28;20025;-72
2022/03/29 07:31:33;;;;;;;1.15;0.10;;;;;;;24.60;43.88;100784.31;5033580;28;20022;-72
2022/03/29 07:33:59;;;;;;;1.05;0.20;;;;;;;24.59;43.86;100790.88;5032340;28;20072;-73
2022/03/29 07:36:24;;;;;;;0.60;0.10;;;;;;;24.59;43.35;100788.13;5033363;28;20025;-71
2022/03/29 07:38:50;;;;;;;0.28;0.10;;;;;;;24.62;43.99;100784.94;5033628;28;20014;-73
2022/03/29 07:41:16;;;;;;;0.80;0.17;;;;;;;24.63;43.54;100794.88;5032182;28;20032;-72
2022/03/29 07:43:41;;;;;;;0.28;0.10;;;;;;;24.60;43.80;100795.31;5033718;28;20416;-72
2022/03/29 07:46:07;;;;;;;0.35;0.00;;;;;;;24.62;43.88;100795.94;5033338;28;20030;-72
2022/03/29 07:48:32;;;;;;;1.17;0.10;;;;;;;24.59;44.22;100797.22;5033425;28;20075;-72
2022/03/29 07:50:57;;;;;;;1.33;0.10;;;;;;;24.62;42.53;100801.44;5032180;28;20057;-73
2022/03/29 07:53:25;;;;;;;0.22;0.10;;;;;;;24.60;43.50;100803.56;5033064;28;20025;-71
2022/03/29 07:55:50;;;;;;;0.20;0.05;;;;;;;24.61;42.86;100799.75;5032026;28;20590;-72
2022/03/29 07:58:17;;;;;;;0.35;0.10;;;;;;;24.60;43.56;100803.56;5038463;28;20131;-72
2022/03/29 08:00:43;;;;;;;0.40;0.10;;;;;;;24.57;42.24;100801.22;5052716;28;20029;-71
2022/03/29 08:03:15;;;;;;;0.00;0.00;;;;;;;24.60;43.58;100806.28;5051053;28;20163;-73
2022/03/29 08:05:42;;;;;;;0.10;0.00;;;;;;;24.63;43.98;100808.63;5053272;28;20024;-72
2022/03/29 08:08:10;;;;;;;0.00;0.00;;;;;;;24.61;43.34;100813.47;5052800;28;20429;-72
2022/03/29 08:10:35;;;;;;;0.00;0.00;;;;;;;24.61;43.83;100810.72;5053095;28;20025;-73
2022/03/29 08:13:03;;;;;;;0.43;0.08;;;;;;;24.60;43.97;100812.63;5052901;28;20063;-72
2022/03/29 08:15:29;;;;;;;0.00;0.00;;;;;;;24.62;43.82;100819.81;5051404;28;20025;-74
2022/03/29 08:17:56;;;;;;;0.17;0.10;;;;;;;24.64;44.00;100815.81;5051441;28;20021;-72
2022/03/29 08:20:21;;;;;;;0.03;0.03;;;;;;;24.60;43.91;100814.53;5052419;28;20029;-73
2022/03/29 08:22:47;;;;;;;0.35;0.10;;;;;;;24.61;44.42;100821.72;5052779;28;20027;-72
2022/03/29 08:25:14;;;;;;;0.43;0.10;;;;;;;24.62;43.67;100819.81;5052611;28;20473;-72
2022/03/29 08:27:39;;;;;;;0.15;0.08;;;;;;;24.62;43.99;100822.56;5049047;28;20064;-73
2022/03/29 08:30:06;;;;;;;0.10;0.00;;;;;;;24.59;43.07;100823.84;5032864;28;20423;-72
2022/03/29 08:32:32;;;;;;;0.35;0.10;;;;;;;24.65;43.93;100825.72;5032536;28;20029;-72
2022/03/29 08:34:58;;;;;;;0.38;0.00;;;;;;;24.63;43.99;100819.59;5032756;28;20021;-73
2022/03/29 08:37:23;;;;;;;0.32;0.00;;;;;;;24.61;43.26;100821.72;5032596;28;20140;-72
2022/03/29 08:39:48;;;;;;;0.57;0.00;;;;;;;24.62;43.47;100817.91;5032619;28;20075;-74
2022/03/29 08:42:16;;;;;;;0.38;0.10;;;;;;;24.60;42.65;100809.03;5032272;28;20025;-72
2022/03/29 08:44:42;;;;;;;0.68;0.10;;;;;;;24.64;43.97;100803.97;5032527;28;20029;-73
2022/03/29 08:47:12;;;;;;;0.30;0.10;;;;;;;24.59;44.05;100812.84;5032514;28;20523;-73
2022/03/29 08:49:37;;;;;;;0.10;0.00;;;;;;;24.60;43.82;100814.53;5031070;28;20021;-71
2022/03/29 08:52:06;;;;;;;0.70;0.10;;;;;;;24.63;43.28;100811.38;5032231;28;20025;-72
2022/03/29 08:54:32;;;;;;;0.40;0.10;;;;;;;24.61;43.53;100810.72;5030961;28;20420;-73
2022/03/29 08:56:58;;;;;;;0.10;0.00;;;;;;;24.65;43.76;100812.00;5032246;28;20038;-71
2022/03/29 08:59:25;;;;;;;0.10;0.10;;;;;;;24.63;43.54;100805.88;5047353;28;20028;-72
2022/03/29 09:01:51;;;;;;;0.93;0.20;;;;;;;24.60;44.29;100803.56;5050889;28;20025;-72
2022/03/29 09:04:21;;;;;;;0.30;0.10;;;;;;;24.62;43.55;100801.44;5052147;28;20035;-71
2022/03/29 09:06:58;;;;;;;0.52;0.10;;;;;;;24.66;43.05;100802.69;5052567;28;20037;-74
2022/03/29 09:09:29;;;;;;;0.47;0.17;;;;;;;24.60;42.41;100795.31;5051852;28;20530;-72
2022/03/29 09:11:56;;;;;;;0.80;0.30;;;;;;;24.55;43.43;100797.84;5050874;28;20119;-73
2022/03/29 09:14:23;;;;;;;0.45;0.30;;;;;;;24.60;44.06;100798.06;5052409;28;20498;-72
2022/03/29 09:16:51;;;;;;;0.52;0.20;;;;;;;24.63;43.84;100796.78;5056350;28;20083;-72
2022/03/29 09:19:19;;;;;;;0.13;0.10;;;;;;;24.62;42.95;100795.94;5047636;28;20021;-71
2022/03/29 09:21:45;;;;;;;0.43;0.05;;;;;;;24.62;43.51;100800.59;5035011;28;20045;-71
2022/03/29 09:24:17;;;;;;;0.55;0.10;;;;;;;24.60;43.85;100804.41;5034620;28;20017;-71
2022/03/29 09:26:45;;;;;;;0.10;0.00;;;;;;;24.63;42.17;100803.13;5036197;28;20032;-72
2022/03/29 09:29:14;;;;;;;0.35;0.10;;;;;;;24.66;43.69;100802.69;5053584;28;20021;-71
2022/03/29 09:31:40;;;;;;;0.38;0.05;;;;;;;24.54;43.90;100804.41;5054152;28;20064;-72
2022/03/29 09:34:14;;;;;;;0.25;0.00;;;;;;;24.57;42.58;100806.72;5054462;28;20025;-71
2022/03/29 09:36:48;;;;;;;0.57;0.17;;;;;;;24.62;43.37;100812.44;5055794;28;20082;-71
2022/03/29 09:39:36;;;;;;;0.40;0.00;;;;;;;24.61;43.60;100805.25;5055795;28;20056;-71
2022/03/29 09:42:05;;;;;;;0.75;0.10;;;;;;;24.64;43.69;100810.31;5055636;28;20067;-71
2022/03/29 09:44:45;;;;;;;0.50;0.20;;;;;;;24.59;43.34;100810.09;5055602;28;20021;-71
2022/03/29 09:47:13;;;;;;;0.30;0.00;;;;;;;24.59;42.60;100812.84;5055505;28;20028;-72
2022/03/29 09:49:55;;;;;;;0.10;0.10;;;;;;;24.57;42.98;100799.34;5054951;28;20384;-71
2022/03/29 09:52:25;;;;;;;0.00;0.00;;;;;;;24.63;43.48;100803.13;5055369;28;20028;-71
2022/03/29 09:55:13;;;;;;;0.05;0.00;;;;;;;24.58;42.60;100805.66;5055650;28;20043;-73
2022/03/29 09:57:44;;;;;;;0.38;0.10;;;;;;;24.59;42.35;100812.84;5053865;28;20439;-72
2022/03/29 10:00:13;;;;;;;0.90;0.10;;;;;;;24.61;43.35;100816.22;5053843;28;20017;-70
2022/03/29 10:02:40;;;;;;;0.47;0.10;;;;;;;24.66;43.37;100813.69;5055378;28;20025;-73
2022/03/29 10:05:07;;;;;;;0.10;0.08;;;;;;;24.64;43.18;100820.44;5054352;28;20419;-71
2022/03/29 10:09:25;;;;;;;0.20;0.10;;;;;;;24.64;43.57;100815.81;5053847;28;20025;-72
2022/03/29 10:10:44;;;;;;;0.55;0.13;;;;;;;24.66;43.77;100815.59;5012920;28;20034;-73
2022/03/29 10:13:09;;;;;;;0.25;0.10;;;;;;;24.59;43.06;100821.09;5012965;28;20477;-72
2022/03/29 10:15:35;;;;;;;0.00;0.00;;;;;;;24.62;43.75;100817.06;5012995;28;20034;-73
2022/03/29 10:18:01;;;;;;;0.10;0.00;;;;;;;24.59;43.08;100812.84;5012840;28;20434;-73
2022/03/29 10:20:28;;;;;;;0.63;0.00;;;;;;;24.63;42.97;100819.59;5012095;28;20034;-71
2022/03/29 10:22:56;;;;;;;1.17;0.05;;;;;;;24.64;42.87;100828.69;5012964;28;20116;-72
2022/03/29 10:25:26;;;;;;;0.47;0.20;;;;;;;24.65;43.46;100822.97;5011896;28;20037;-72
2022/03/29 10:27:54;;;;;;;0.50;0.20;;;;;;;24.63;43.11;100814.09;5004017;28;20042;-72
2022/03/29 10:30:31;;;;;;;0.47;0.10;;;;;;;24.66;43.06;100835.66;4992851;28;20069;-72
2022/03/29 10:33:23;;;;;;;0.10;0.00;;;;;;;24.60;43.89;100847.53;4993280;28;20628;-72
2022/03/29 10:35:58;;;;;;;0.13;0.05;;;;;;;24.62;41.89;100855.56;4993113;28;20035;-72
2022/03/29 10:38:46;;;;;;;0.20;0.10;;;;;;;24.59;43.67;100862.31;4992735;28;20363;-73
2022/03/29 10:41:26;;;;;;;0.35;0.13;;;;;;;24.60;41.97;100858.53;4992854;28;20038;-72
2022/03/29 10:44:01;;;;;;;0.35;0.10;;;;;;;24.62;42.32;100861.91;4993057;28;20509;-73
2022/03/29 10:46:41;;;;;;;0.03;0.00;;;;;;;24.62;43.88;100872.88;4995706;28;20553;-73
2022/03/29 10:49:20;;;;;;;0.70;0.20;;;;;;;24.62;43.02;100872.06;5033720;28;20029;-71
2022/03/29 10:51:57;;;;;;;0.30;0.10;;;;;;;24.63;42.20;100879.22;5034905;28;20099;-72
2022/03/29 10:54:41;;;;;;;0.28;0.10;;;;;;;24.68;43.00;100876.69;5034569;28;20032;-72
2022/03/29 10:57:31;;;;;;;0.20;0.00;;;;;;;24.66;42.92;100879.66;5034401;28;20077;-71
2022/03/29 11:00:11;;;;;;;0.28;0.10;;;;;;;24.67;43.41;100875.84;5033056;28;20389;-72
2022/03/29 11:02:38;;;;;;;0.15;0.10;;;;;;;24.65;42.90;100866.97;5034293;28;20056;-72
2022/03/29 11:05:12;;;;;;;0.28;0.15;;;;;;;24.61;43.32;100873.94;5035394;28;20025;-71
2022/03/29 11:07:52;;;;;;;0.00;0.00;;;;;;;24.63;42.24;100862.75;5070539;28;20514;-72
2022/03/29 11:10:19;;;;;;;0.10;0.10;;;;;;;24.64;43.93;100859.78;5073795;28;20530;-71
2022/03/29 11:12:49;;;;;;;0.22;0.10;;;;;;;24.63;43.15;100865.50;5074127;28;20028;-72
2022/03/29 11:15:27;;;;;;;0.30;0.10;;;;;;;24.64;43.87;100853.44;5073978;28;20099;-71
2022/03/29 11:17:54;;;;;;;0.70;0.20;;;;;;;24.65;43.34;100858.72;5073922;28;20078;-71
2022/03/29 11:20:32;;;;;;;0.20;0.05;;;;;;;24.58;44.02;100860.63;5046903;28;20119;-72
2022/03/29 11:23:08;;;;;;;0.28;0.05;;;;;;;24.61;41.92;100854.72;5062620;28;20027;-71
2022/03/29 11:25:43;;;;;;;0.85;0.17;;;;;;;24.60;41.99;100853.03;5057716;28;20017;-71
2022/03/29 11:28:13;;;;;;;0.73;0.10;;;;;;;24.62;43.21;100856.41;5038064;28;20022;-72
2022/03/29 11:30:39;;;;;;;0.10;0.10;;;;;;;24.65;42.86;100858.72;5033840;28;20572;-71
2022/03/29 11:33:06;;;;;;;0.10;0.10;;;;;;;24.64;42.38;100854.28;5033836;28;20025;-71